Main page
METAR-TAF:

METAR-TAF

Airports :

Pau, France

Pau Pyrénées Airport

latitude: 43-23N, longitude: 000-25W, elevation: 188 m

Current weather observation

The report was made 10 minutes ago, at 19:00 UTC
Wind 5 kt from the Northwest
Temperature 18°C
Humidity 77%
Pressure 1020 hPa
Visibility 10 km or more
Overcast at a height of 3700 ft

METAR: LFBP 231900Z AUTO 32005KT 9999 OVC037 18/14 Q1020 NOSIG

Time: 21:10 (19:10 UTC)

Forecast

The report was made 2 hours and 10 minutes ago, at 17:00 UTC
Forecast valid from 23 at 18 UTC to 24 at 18 UTC
Wind 3 kt from variable directions
Visibility 10 km or more
Broken clouds at a height of 3000 ft
Becoming
from 23 at 21 UTC to 23 at 23 UTC
Overcast at a height of 1000 ft
Becoming
from 24 at 10 UTC to 24 at 12 UTC
Wind 5 kt from the East/Northeast
Visibility 10 km or more
no clouds below 1500 m and no cumulonimbus

TAF: LFBP 231700Z 2318/2418 VRB03KT 9999 BKN030 BECMG 2321/2323 OVC010 BECMG 2410/2412 06005KT CAVOK

Weather observations and forecasts of more than 4000 airports (METAR and TAF reports).

The available stations are represented by yellow and red dots on the map.

Hover mouse over dot to see the name of the station.

Then click to see weather observations and forecasts.

To change the map : click on the green buttons with a black cross to zoom in, on the green button with a dash to zoom out, or on the green arrows for adjacent maps.


METAR-TAF: